createdAt,value
2023-05-22T00:01:26.139Z,10.25
2023-05-22T00:03:58.666Z,9.25
2023-05-22T00:06:33.402Z,12.68
2023-05-22T00:09:05.910Z,6.45
2023-05-22T00:11:38.838Z,9.30
2023-05-22T00:14:12.760Z,9.93
2023-05-22T00:16:47.577Z,8.38
2023-05-22T00:19:22.328Z,8.57
2023-05-22T00:21:54.749Z,7.40
2023-05-22T00:24:27.098Z,9.13
2023-05-22T00:26:59.415Z,13.52
2023-05-22T00:29:32.666Z,7.22
2023-05-22T00:32:06.682Z,6.80
2023-05-22T00:34:39.235Z,8.88
2023-05-22T00:37:11.672Z,8.50
2023-05-22T00:39:44.168Z,8.43
2023-05-22T00:42:16.752Z,7.05
2023-05-22T00:44:49.186Z,10.80
2023-05-22T00:47:22.998Z,7.78
2023-05-22T00:49:55.749Z,7.97
2023-05-22T00:52:28.064Z,12.73
2023-05-22T00:55:00.987Z,9.55
2023-05-22T00:57:33.520Z,8.35
2023-05-22T01:00:09.956Z,9.13
2023-05-22T01:02:43.418Z,8.95
2023-05-22T01:05:17.376Z,10.07
2023-05-22T01:07:49.865Z,7.57
2023-05-22T01:10:22.398Z,7.32
2023-05-22T01:13:03.948Z,8.43
2023-05-22T01:15:43.893Z,10.98
2023-05-22T01:18:29.545Z,9.32
2023-05-22T01:21:09.558Z,13.43
2023-05-22T01:24:15.420Z,7.95
2023-05-22T01:27:10.417Z,8.43
2023-05-22T01:29:48.010Z,7.78
2023-05-22T01:32:25.144Z,9.27
2023-05-22T01:35:03.075Z,7.38
2023-05-22T01:37:36.363Z,9.02
2023-05-22T01:40:11.553Z,10.32
2023-05-22T01:42:45.172Z,9.30
2023-05-22T01:45:17.566Z,8.98
2023-05-22T01:47:51.492Z,9.23
2023-05-22T01:50:24.216Z,10.15
2023-05-22T01:53:06.574Z,7.75
2023-05-22T01:55:44.894Z,7.18
2023-05-22T01:58:25.300Z,8.77
2023-05-22T02:01:01.040Z,13.35
2023-05-22T02:03:56.664Z,11.70
2023-05-22T02:06:31.909Z,9.18
2023-05-22T02:09:06.771Z,7.57
2023-05-22T02:11:41.234Z,11.60
2023-05-22T02:14:13.690Z,7.97
2023-05-22T02:16:46.988Z,9.38
2023-05-22T02:19:20.198Z,9.27
2023-05-22T02:21:54.741Z,10.07
2023-05-22T02:24:27.420Z,10.40
2023-05-22T02:27:00.916Z,6.93
2023-05-22T02:29:33.388Z,7.65
2023-05-22T02:32:06.397Z,10.65
2023-05-22T02:34:39.604Z,9.55
2023-05-22T02:37:12.569Z,9.70
2023-05-22T02:39:48.069Z,11.38
2023-05-22T02:42:20.495Z,8.35
2023-05-22T02:44:53.021Z,5.95
2023-05-22T02:47:25.478Z,6.53
2023-05-22T02:49:58.619Z,9.93
2023-05-22T02:52:30.983Z,10.98
2023-05-22T02:55:03.650Z,8.77
2023-05-22T02:57:36.321Z,8.75
2023-05-22T03:00:10.843Z,8.05
2023-05-22T03:02:43.440Z,8.90
2023-05-22T03:05:17.106Z,7.90
2023-05-22T03:07:49.497Z,12.80
2023-05-22T03:10:23.041Z,8.15
2023-05-22T03:12:55.423Z,9.07
2023-05-22T03:15:27.913Z,9.25
2023-05-22T03:18:04.863Z,8.68
2023-05-22T03:20:38.372Z,8.77
2023-05-22T03:23:11.576Z,7.63
2023-05-22T03:25:43.953Z,9.65
2023-05-22T03:28:16.675Z,7.43
2023-05-22T03:30:49.240Z,10.85
2023-05-22T03:33:30.384Z,11.93
2023-05-22T03:36:03.986Z,9.32
2023-05-22T03:38:36.325Z,8.05
2023-05-22T03:41:08.650Z,9.52
2023-05-22T03:43:48.875Z,12.13
2023-05-22T03:46:21.434Z,11.80
2023-05-22T03:48:54.077Z,9.18
2023-05-22T03:51:27.261Z,9.75
2023-05-22T03:53:59.605Z,10.07
2023-05-22T03:56:32.025Z,11.77
2023-05-22T03:59:04.423Z,11.98
2023-05-22T04:01:38.636Z,9.88
2023-05-22T04:04:11.474Z,8.20
2023-05-22T04:06:44.558Z,8.82
2023-05-22T04:09:19.809Z,10.15
2023-05-22T04:11:52.605Z,7.13
2023-05-22T04:14:25.482Z,7.82
2023-05-22T04:16:57.917Z,10.50
2023-05-22T04:19:30.442Z,7.43
2023-05-22T04:22:03.922Z,7.35
2023-05-22T04:24:38.993Z,7.53
2023-05-22T04:27:12.471Z,8.27
2023-05-22T04:29:46.280Z,6.72
2023-05-22T04:32:21.114Z,6.35
2023-05-22T04:34:53.447Z,6.45
2023-05-22T04:37:28.068Z,10.05
2023-05-22T04:40:06.158Z,7.80
2023-05-22T04:42:38.712Z,5.70
2023-05-22T04:45:13.111Z,9.55
2023-05-22T04:47:45.472Z,13.05
2023-05-22T04:50:18.134Z,9.50
2023-05-22T04:52:51.112Z,7.00
2023-05-22T04:55:23.518Z,7.15
2023-05-22T04:57:56.049Z,8.00
2023-05-22T05:00:29.415Z,8.05
2023-05-22T05:03:03.675Z,7.95
2023-05-22T05:05:36.203Z,8.57
2023-05-22T05:08:09.362Z,6.53
2023-05-22T05:10:41.853Z,8.10
2023-05-22T05:13:14.281Z,7.25
2023-05-22T05:15:46.716Z,7.78
2023-05-22T05:18:19.493Z,9.05
2023-05-22T05:20:51.872Z,7.55
2023-05-22T05:23:24.885Z,5.82
2023-05-22T05:25:57.269Z,6.60
2023-05-22T05:28:29.646Z,5.47
2023-05-22T05:31:02.353Z,5.15
2023-05-22T05:33:57.364Z,6.50
2023-05-22T05:36:37.313Z,6.28
2023-05-22T05:39:10.521Z,5.03
2023-05-22T05:41:43.749Z,4.80
2023-05-22T05:44:16.545Z,4.68
2023-05-22T05:46:49.259Z,4.38
2023-05-22T05:49:23.758Z,4.63
2023-05-22T05:51:56.140Z,5.18
2023-05-22T05:54:30.093Z,5.68
2023-05-22T05:57:07.121Z,5.53
2023-05-22T05:59:40.462Z,5.30
2023-05-22T06:02:38.458Z,5.30
2023-05-22T06:05:12.855Z,4.18
2023-05-22T06:07:47.585Z,5.65
2023-05-22T06:10:21.819Z,7.60
2023-05-22T06:13:08.000Z,5.00
2023-05-22T06:15:40.567Z,6.32
2023-05-22T06:18:13.125Z,5.65
2023-05-22T06:20:45.484Z,4.95
2023-05-22T06:23:17.810Z,6.82
2023-05-22T06:25:50.972Z,6.65
2023-05-22T06:28:23.410Z,9.25
2023-05-22T06:30:56.502Z,8.30
2023-05-22T06:33:29.364Z,5.35
2023-05-22T06:36:03.045Z,8.52
2023-05-22T06:38:37.238Z,6.20
2023-05-22T06:41:11.521Z,7.47
2023-05-22T06:43:44.494Z,7.38
2023-05-22T06:46:18.060Z,8.40
2023-05-22T06:48:58.227Z,7.07
2023-05-22T06:51:33.507Z,4.90
2023-05-22T06:54:13.120Z,8.20
2023-05-22T06:56:49.257Z,5.70
2023-05-22T06:59:23.297Z,6.35
2023-05-22T07:01:58.497Z,6.60
2023-05-22T07:04:39.864Z,6.60
2023-05-22T07:07:15.250Z,8.82
2023-05-22T07:09:47.931Z,6.57
2023-05-22T07:12:25.266Z,6.13
2023-05-22T07:14:59.475Z,9.48
2023-05-22T07:17:32.268Z,5.93
2023-05-22T07:20:06.253Z,5.80
2023-05-22T07:22:41.076Z,5.05
2023-05-22T07:25:13.481Z,6.97
2023-05-22T07:27:47.008Z,5.95
2023-05-22T07:30:19.545Z,5.18
2023-05-22T07:32:53.463Z,8.38
2023-05-22T07:35:26.190Z,6.90
2023-05-22T07:37:58.699Z,5.38
2023-05-22T07:40:31.243Z,6.28
2023-05-22T07:43:04.494Z,6.38
2023-05-22T07:45:39.016Z,7.35
2023-05-22T07:48:14.538Z,7.40
2023-05-22T07:50:47.124Z,6.22
2023-05-22T07:53:21.051Z,6.25
2023-05-22T07:55:56.507Z,10.40
2023-05-22T07:58:30.087Z,8.93
2023-05-22T08:01:04.248Z,6.78
2023-05-22T08:03:37.183Z,5.82
2023-05-22T08:06:22.488Z,7.72
2023-05-22T08:08:54.906Z,6.88
2023-05-22T08:11:27.546Z,8.77
2023-05-22T08:14:00.937Z,8.48
2023-05-22T08:16:33.504Z,6.88
2023-05-22T08:19:06.339Z,6.25
2023-05-22T08:21:39.621Z,5.82
2023-05-22T08:24:11.977Z,8.68
2023-05-22T08:26:44.324Z,12.00
2023-05-22T08:29:18.063Z,4.20
2023-05-22T08:31:51.626Z,7.63
2023-05-22T08:34:24.075Z,6.60
2023-05-22T08:36:56.596Z,7.57
2023-05-22T08:39:28.945Z,4.35
2023-05-22T08:42:02.704Z,5.50
2023-05-22T08:44:35.907Z,4.50
2023-05-22T08:47:10.560Z,4.60
2023-05-22T08:49:45.337Z,6.00
2023-05-22T08:52:21.693Z,6.10
2023-05-22T08:54:55.173Z,5.88
2023-05-22T08:57:27.868Z,7.03
2023-05-22T09:00:01.362Z,5.88
2023-05-22T09:02:35.301Z,4.90
2023-05-22T09:05:09.110Z,4.60
2023-05-22T09:07:41.892Z,4.57
2023-05-22T09:10:14.333Z,4.97
2023-05-22T09:13:05.009Z,3.92
2023-05-22T09:15:38.140Z,9.88
2023-05-22T09:18:10.672Z,4.40
2023-05-22T09:20:43.433Z,5.53
2023-05-22T09:23:17.672Z,3.13
2023-05-22T09:25:53.652Z,2.65
2023-05-22T09:28:26.761Z,3.17
2023-05-22T09:31:02.503Z,5.28
2023-05-22T09:33:36.866Z,5.20
2023-05-22T09:36:09.799Z,2.33
2023-05-22T09:38:42.440Z,3.00
2023-05-22T09:41:21.514Z,3.17
2023-05-22T09:43:53.997Z,5.95
2023-05-22T09:46:27.184Z,4.13
2023-05-22T09:49:01.495Z,4.05
2023-05-22T09:51:35.666Z,7.75
2023-05-22T09:54:09.094Z,4.13
2023-05-22T09:56:43.979Z,3.92
2023-05-22T09:59:21.623Z,3.95
2023-05-22T10:01:55.459Z,8.23
2023-05-22T10:04:32.708Z,4.05
2023-05-22T10:07:06.074Z,5.43
2023-05-22T10:09:40.214Z,6.65
2023-05-22T10:12:15.760Z,4.18
2023-05-22T10:14:48.657Z,5.68
2023-05-22T10:17:22.879Z,3.47
2023-05-22T10:19:57.387Z,2.45
2023-05-22T10:22:32.710Z,3.75
2023-05-22T10:25:08.567Z,5.43
2023-05-22T10:27:42.408Z,5.22
2023-05-22T10:30:24.077Z,4.05
2023-05-22T10:33:21.453Z,8.07
2023-05-22T10:36:01.434Z,4.75
2023-05-22T10:39:03.657Z,5.93
2023-05-22T10:41:36.290Z,3.45
2023-05-22T10:44:08.735Z,6.03
2023-05-22T10:46:48.597Z,3.97
2023-05-22T10:49:23.171Z,5.82
2023-05-22T10:51:56.582Z,3.58
2023-05-22T10:54:40.563Z,4.55
2023-05-22T10:57:17.359Z,3.80
2023-05-22T10:59:49.863Z,4.68
2023-05-22T11:02:28.576Z,5.28
2023-05-22T11:05:35.750Z,4.43
2023-05-22T11:08:12.465Z,4.82
2023-05-22T11:10:55.305Z,4.95
2023-05-22T11:13:29.264Z,5.88
2023-05-22T11:16:05.594Z,5.88
2023-05-22T11:18:38.121Z,4.88
2023-05-22T11:21:11.547Z,7.68
2023-05-22T11:23:45.898Z,4.07
2023-05-22T11:26:25.234Z,5.22
2023-05-22T11:28:59.833Z,3.60
2023-05-22T11:31:32.677Z,4.13
2023-05-22T11:34:05.418Z,4.78
2023-05-22T11:36:38.598Z,9.25
2023-05-22T11:39:14.719Z,4.38
2023-05-22T11:41:47.127Z,5.63
2023-05-22T11:44:19.511Z,4.25
2023-05-22T11:46:52.247Z,3.95
2023-05-22T11:49:25.193Z,5.72
2023-05-22T11:51:58.379Z,5.63
2023-05-22T11:54:32.323Z,15.27
2023-05-22T11:57:06.180Z,4.22
2023-05-22T11:59:38.646Z,6.78
2023-05-22T12:02:11.154Z,4.95
2023-05-22T12:04:43.584Z,6.15
2023-05-22T12:07:16.789Z,5.55
2023-05-22T12:09:49.556Z,4.38
2023-05-22T12:12:22.809Z,5.03
2023-05-22T12:14:57.345Z,4.20
2023-05-22T12:17:29.770Z,4.57
2023-05-22T12:20:04.069Z,4.13
2023-05-22T12:22:42.691Z,3.05
2023-05-22T12:25:16.901Z,3.35
2023-05-22T12:27:51.269Z,3.20
2023-05-22T12:30:23.642Z,3.03
2023-05-22T12:32:56.430Z,3.88
2023-05-22T12:35:28.895Z,4.68
2023-05-22T12:38:02.087Z,9.00
2023-05-22T12:40:34.607Z,5.03
2023-05-22T12:43:07.514Z,4.50
2023-05-22T12:45:41.998Z,3.83
2023-05-22T12:48:14.788Z,4.75
2023-05-22T12:50:47.307Z,3.63
2023-05-22T12:53:20.511Z,4.18
2023-05-22T12:55:52.871Z,3.92
2023-05-22T12:58:25.283Z,4.78
2023-05-22T13:00:57.814Z,3.40
2023-05-22T13:03:30.704Z,6.60
2023-05-22T13:06:03.402Z,5.30
2023-05-22T13:08:36.593Z,3.42
2023-05-22T13:11:10.687Z,3.58
2023-05-22T13:13:43.120Z,4.80
2023-05-22T13:16:16.257Z,4.93
2023-05-22T13:18:48.781Z,3.03
2023-05-22T13:21:21.204Z,4.95
2023-05-22T13:23:55.221Z,4.70
2023-05-22T13:26:28.362Z,4.13
2023-05-22T13:29:04.532Z,4.28
2023-05-22T13:31:37.570Z,4.63
2023-05-22T13:34:10.356Z,3.20
2023-05-22T13:36:43.139Z,4.47
2023-05-22T13:39:18.864Z,6.07
2023-05-22T13:41:52.621Z,6.72
2023-05-22T13:44:25.398Z,4.38
2023-05-22T13:46:57.965Z,4.32
2023-05-22T13:49:30.429Z,5.88
2023-05-22T13:52:03.116Z,4.35
2023-05-22T13:54:36.213Z,4.78
2023-05-22T13:57:08.717Z,4.30
2023-05-22T13:59:41.147Z,4.40
2023-05-22T14:02:13.632Z,3.67
2023-05-22T14:04:48.562Z,4.47
2023-05-22T14:07:21.191Z,2.70
2023-05-22T14:09:54.252Z,6.80
2023-05-22T14:12:26.818Z,3.13
2023-05-22T14:14:59.302Z,5.13
2023-05-22T14:17:31.647Z,5.90
2023-05-22T14:20:04.573Z,4.78
2023-05-22T14:22:47.918Z,3.85
2023-05-22T14:25:29.265Z,5.32
2023-05-22T14:28:02.007Z,4.05
2023-05-22T14:30:34.411Z,4.10
2023-05-22T14:33:07.014Z,3.80
2023-05-22T14:35:39.546Z,4.03
2023-05-22T14:38:12.041Z,5.38
2023-05-22T14:40:45.223Z,4.07
2023-05-22T14:43:17.515Z,4.72
2023-05-22T14:45:50.116Z,4.75
2023-05-22T14:48:25.413Z,6.03
2023-05-22T14:50:57.812Z,3.70
2023-05-22T14:53:30.135Z,5.70
2023-05-22T14:56:03.268Z,4.45
2023-05-22T14:58:35.551Z,3.40
2023-05-22T15:01:07.924Z,4.30
2023-05-22T15:03:40.238Z,4.47
2023-05-22T15:06:12.557Z,5.75
2023-05-22T15:08:44.887Z,4.10
2023-05-22T15:11:17.856Z,3.88
2023-05-22T15:13:50.840Z,3.40
2023-05-22T15:16:24.864Z,3.28
2023-05-22T15:18:57.250Z,7.07
2023-05-22T15:21:29.772Z,7.45
2023-05-22T15:24:02.483Z,4.68
2023-05-22T15:26:35.502Z,7.40
2023-05-22T15:29:07.909Z,5.93
2023-05-22T15:31:40.290Z,6.05
2023-05-22T15:34:12.622Z,4.57
2023-05-22T15:36:44.960Z,3.60
2023-05-22T15:39:17.304Z,7.32
2023-05-22T15:42:02.455Z,4.88
2023-05-22T15:44:37.953Z,4.53
2023-05-22T15:47:10.280Z,7.57
2023-05-22T15:49:42.619Z,4.43
2023-05-22T15:52:15.053Z,4.03
2023-05-22T15:54:47.366Z,4.85
2023-05-22T15:57:20.393Z,5.25
2023-05-22T15:59:52.748Z,3.47
2023-05-22T16:02:25.110Z,4.43
2023-05-22T16:04:57.464Z,6.25
2023-05-22T16:07:29.791Z,4.88
2023-05-22T16:10:02.155Z,6.80
2023-05-22T16:12:35.308Z,4.75
2023-05-22T16:15:08.844Z,9.45
2023-05-22T16:17:41.176Z,4.68
2023-05-22T16:20:13.550Z,3.97
2023-05-22T16:22:48.979Z,4.53
2023-05-22T16:25:21.819Z,7.95
2023-05-22T16:27:54.801Z,5.00
2023-05-22T16:30:27.154Z,5.45
2023-05-22T16:32:59.527Z,4.32
2023-05-22T16:35:31.886Z,3.83
2023-05-22T16:38:06.295Z,3.70
2023-05-22T16:40:38.631Z,4.18
2023-05-22T16:43:13.057Z,5.38
2023-05-22T16:45:50.152Z,7.25
2023-05-22T16:48:22.525Z,5.38
2023-05-22T16:50:54.882Z,2.67
2023-05-22T16:53:27.220Z,4.30
2023-05-22T16:55:59.673Z,5.10
2023-05-22T16:58:32.728Z,5.63
2023-05-22T17:01:05.951Z,5.00
2023-05-22T17:03:38.384Z,5.40
2023-05-22T17:06:11.432Z,4.63
2023-05-22T17:08:43.994Z,4.78
2023-05-22T17:11:16.363Z,4.15
2023-05-22T17:13:49.438Z,3.92
2023-05-22T17:16:21.797Z,5.07
2023-05-22T17:18:55.076Z,6.45
2023-05-22T17:21:28.152Z,3.72
2023-05-22T17:24:01.075Z,3.42
2023-05-22T17:26:33.745Z,4.60
2023-05-22T17:29:06.986Z,4.60
2023-05-22T17:31:39.782Z,5.07
2023-05-22T17:34:12.235Z,6.32
2023-05-22T17:36:45.235Z,4.53
2023-05-22T17:39:17.700Z,4.60
2023-05-22T17:41:50.586Z,4.35
2023-05-22T17:44:23.585Z,4.85
2023-05-22T17:46:55.967Z,5.43
2023-05-22T17:49:28.330Z,5.40
2023-05-22T17:52:01.030Z,5.10
2023-05-22T17:54:33.979Z,6.25
2023-05-22T17:57:06.361Z,5.80
2023-05-22T17:59:40.416Z,4.63
2023-05-22T18:02:13.111Z,5.50
2023-05-22T18:04:45.474Z,6.28
2023-05-22T18:07:19.246Z,7.10
2023-05-22T18:09:51.788Z,7.10
2023-05-22T18:12:31.703Z,6.22
2023-05-22T18:15:08.754Z,5.22
2023-05-22T18:17:41.498Z,5.18
2023-05-22T18:20:16.020Z,6.10
2023-05-22T18:22:48.356Z,4.72
2023-05-22T18:25:20.689Z,6.38
2023-05-22T18:27:54.404Z,9.48
2023-05-22T18:30:27.511Z,5.45
2023-05-22T18:33:00.038Z,4.32
2023-05-22T18:35:33.036Z,4.53
2023-05-22T18:38:05.735Z,5.43
2023-05-22T18:40:38.123Z,4.40
2023-05-22T18:43:10.552Z,11.15
2023-05-22T18:45:43.593Z,7.38
2023-05-22T18:48:15.996Z,5.10
2023-05-22T18:50:48.481Z,5.97
2023-05-22T18:53:22.132Z,7.25
2023-05-22T18:55:54.489Z,8.20
2023-05-22T18:58:26.862Z,8.32
2023-05-22T19:01:01.025Z,10.45
2023-05-22T19:03:33.486Z,4.57
2023-05-22T19:06:06.458Z,3.97
2023-05-22T19:08:39.689Z,2.72
2023-05-22T19:11:12.106Z,2.78
2023-05-22T19:13:44.737Z,2.75
2023-05-22T19:16:17.880Z,2.75
2023-05-22T19:18:50.513Z,3.28
2023-05-22T19:21:23.809Z,3.17
2023-05-22T19:23:56.164Z,2.38
2023-05-22T19:26:28.475Z,3.67
2023-05-22T19:29:00.897Z,4.53
2023-05-22T19:31:34.650Z,3.78
2023-05-22T19:34:07.074Z,3.70
2023-05-22T19:36:39.422Z,3.10
2023-05-22T19:39:11.817Z,2.63
2023-05-22T19:41:44.259Z,4.13
2023-05-22T19:44:16.625Z,2.17
2023-05-22T19:46:49.840Z,3.50
2023-05-22T19:49:22.360Z,2.28
2023-05-22T19:51:56.151Z,3.00
2023-05-22T19:54:28.777Z,1.45
2023-05-22T19:57:02.252Z,1.65
2023-05-22T19:59:36.507Z,2.00
2023-05-22T20:02:10.413Z,1.45
2023-05-22T20:04:48.783Z,2.78
2023-05-22T20:07:21.217Z,3.25
2023-05-22T20:09:53.563Z,1.40
2023-05-22T20:12:26.122Z,2.65
2023-05-22T20:14:59.094Z,3.05
2023-05-22T20:17:32.211Z,2.72
2023-05-22T20:20:08.954Z,1.83
2023-05-22T20:22:41.282Z,2.75
2023-05-22T20:25:13.637Z,1.48
2023-05-22T20:27:53.453Z,2.50
2023-05-22T20:30:25.797Z,1.38
2023-05-22T20:32:58.920Z,2.22
2023-05-22T20:35:31.591Z,1.70
2023-05-22T20:38:03.970Z,3.47
2023-05-22T20:40:41.605Z,2.95
2023-05-22T20:43:17.890Z,5.90
2023-05-22T20:45:50.455Z,2.00
2023-05-22T20:48:26.131Z,2.70
2023-05-22T20:50:58.496Z,2.20
2023-05-22T20:53:33.728Z,2.78
2023-05-22T20:56:08.782Z,2.78
2023-05-22T20:58:52.502Z,3.60
2023-05-22T21:01:33.410Z,2.17
2023-05-22T21:04:07.045Z,2.60
2023-05-22T21:06:39.545Z,2.22
2023-05-22T21:09:11.957Z,3.67
2023-05-22T21:11:44.307Z,3.65
2023-05-22T21:14:16.839Z,3.13
2023-05-22T21:16:49.236Z,3.25
2023-05-22T21:19:22.318Z,4.80
2023-05-22T21:21:54.694Z,3.55
2023-05-22T21:24:27.248Z,5.18
2023-05-22T21:26:59.859Z,4.40
2023-05-22T21:29:32.201Z,5.03
2023-05-22T21:32:05.305Z,4.20
2023-05-22T21:34:38.321Z,4.93
2023-05-22T21:37:10.770Z,5.00
2023-05-22T21:39:43.157Z,8.70
2023-05-22T21:42:16.189Z,4.18
2023-05-22T21:44:48.634Z,5.43
2023-05-22T21:47:20.990Z,5.13
2023-05-22T21:49:53.937Z,7.90
2023-05-22T21:52:27.956Z,5.18
2023-05-22T21:55:01.612Z,6.28
2023-05-22T21:57:34.363Z,6.70
2023-05-22T22:00:07.832Z,8.90
2023-05-22T22:02:40.331Z,7.13
2023-05-22T22:05:13.479Z,6.25
2023-05-22T22:07:45.855Z,8.23
2023-05-22T22:10:18.232Z,6.20
2023-05-22T22:12:50.567Z,8.02
2023-05-22T22:15:22.985Z,9.25
2023-05-22T22:17:59.376Z,6.63
2023-05-22T22:20:43.477Z,6.80
2023-05-22T22:23:17.069Z,6.07
2023-05-22T22:25:49.623Z,6.47
2023-05-22T22:28:22.018Z,6.38
2023-05-22T22:30:54.346Z,4.97
2023-05-22T22:33:26.700Z,5.57
2023-05-22T22:35:59.810Z,8.73
2023-05-22T22:38:34.319Z,7.43
2023-05-22T22:41:08.641Z,6.68
2023-05-22T22:43:41.074Z,5.70
2023-05-22T22:46:13.761Z,4.88
2023-05-22T22:48:46.057Z,6.78
2023-05-22T22:51:19.371Z,5.55
2023-05-22T22:53:51.834Z,7.63
2023-05-22T22:56:27.372Z,6.13
2023-05-22T22:58:59.741Z,9.90
2023-05-22T23:01:32.407Z,4.60
2023-05-22T23:04:04.904Z,6.35
2023-05-22T23:06:41.021Z,8.68
2023-05-22T23:09:14.600Z,5.30
2023-05-22T23:11:46.936Z,10.20
2023-05-22T23:14:19.706Z,7.78
2023-05-22T23:16:52.325Z,6.90
2023-05-22T23:19:24.729Z,6.00
2023-05-22T23:21:57.744Z,5.75
2023-05-22T23:24:30.083Z,8.45
2023-05-22T23:27:02.398Z,6.03
2023-05-22T23:29:34.702Z,7.78
2023-05-22T23:32:07.081Z,6.70
2023-05-22T23:34:39.614Z,6.75
2023-05-22T23:37:12.642Z,7.03
2023-05-22T23:39:44.953Z,5.75
2023-05-22T23:42:18.027Z,6.93
2023-05-22T23:44:50.366Z,8.93
2023-05-22T23:47:22.742Z,6.30
2023-05-22T23:49:55.999Z,7.97
2023-05-22T23:52:29.008Z,7.15
2023-05-22T23:55:01.474Z,10.82
2023-05-22T23:57:33.845Z,8.32
